createdAt,value
2022-10-12T00:01:13.283Z,14.73
2022-10-12T00:03:41.678Z,13.68
2022-10-12T00:06:15.441Z,12.93
2022-10-12T00:08:45.553Z,13.43
2022-10-12T00:11:16.992Z,13.05
2022-10-12T00:13:45.276Z,12.45
2022-10-12T00:16:15.179Z,11.88
2022-10-12T00:18:42.960Z,8.82
2022-10-12T00:21:12.847Z,11.98
2022-10-12T00:23:41.764Z,11.70
2022-10-12T00:26:13.209Z,11.00
2022-10-12T00:28:41.506Z,11.88
2022-10-12T00:31:12.105Z,10.95
2022-10-12T00:33:40.323Z,10.75
2022-10-12T00:36:23.089Z,10.57
2022-10-12T00:38:52.671Z,10.20
2022-10-12T00:41:23.247Z,10.63
2022-10-12T00:43:58.289Z,11.25
2022-10-12T00:46:31.188Z,10.88
2022-10-12T00:49:18.463Z,10.25
2022-10-12T00:51:56.751Z,9.75
2022-10-12T00:54:30.421Z,10.82
2022-10-12T00:56:59.682Z,9.75
2022-10-12T00:59:54.992Z,9.30
2022-10-12T01:02:26.356Z,9.73
2022-10-12T01:04:54.980Z,10.45
2022-10-12T01:07:23.172Z,9.57
2022-10-12T01:09:51.224Z,10.32
2022-10-12T01:12:20.352Z,10.70
2022-10-12T01:14:48.224Z,9.18
2022-10-12T01:17:34.152Z,9.20
2022-10-12T01:20:26.545Z,9.60
2022-10-12T01:23:52.115Z,9.98
2022-10-12T01:26:44.557Z,10.45
2022-10-12T01:29:15.610Z,10.95
2022-10-12T01:31:57.356Z,9.85
2022-10-12T01:34:45.768Z,9.63
2022-10-12T01:37:26.273Z,9.25
2022-10-12T01:39:57.376Z,10.82
2022-10-12T01:42:29.263Z,10.05
2022-10-12T01:45:05.754Z,9.88
2022-10-12T01:47:35.648Z,9.52
2022-10-12T01:50:06.850Z,10.25
2022-10-12T01:53:15.470Z,10.55
2022-10-12T01:55:57.561Z,9.80
2022-10-12T01:58:36.954Z,10.38
2022-10-12T02:01:21.966Z,10.15
2022-10-12T02:04:18.953Z,10.80
2022-10-12T02:06:52.352Z,10.35
2022-10-12T02:09:20.330Z,10.98
2022-10-12T02:11:52.677Z,12.10
2022-10-12T02:14:23.798Z,10.95
2022-10-12T02:16:59.222Z,12.20
2022-10-12T02:19:30.943Z,10.15
2022-10-12T02:22:05.016Z,11.70
2022-10-12T02:24:36.283Z,10.27
2022-10-12T02:27:05.113Z,9.75
2022-10-12T02:29:42.247Z,11.15
2022-10-12T02:32:27.989Z,10.50
2022-10-12T02:35:07.852Z,9.20
2022-10-12T02:37:38.563Z,9.90
2022-10-12T02:40:43.551Z,10.23
2022-10-12T02:43:45.323Z,9.75
2022-10-12T02:46:14.951Z,12.23
2022-10-12T02:48:45.184Z,15.30
2022-10-12T02:51:13.533Z,21.08
2022-10-12T02:53:41.412Z,25.38
2022-10-12T02:56:15.716Z,26.80
2022-10-12T02:58:45.240Z,29.10
2022-10-12T03:01:17.146Z,32.22
2022-10-12T03:03:45.859Z,40.70
2022-10-12T03:06:14.405Z,40.80
2022-10-12T03:08:42.265Z,35.17
2022-10-12T03:11:13.026Z,35.08
2022-10-12T03:13:41.168Z,28.50
2022-10-12T03:16:11.487Z,22.27
2022-10-12T03:18:40.103Z,20.42
2022-10-12T03:21:08.253Z,15.10
2022-10-12T03:23:36.132Z,15.73
2022-10-12T03:26:04.691Z,13.48
2022-10-12T03:28:33.536Z,13.32
2022-10-12T03:31:01.514Z,13.10
2022-10-12T03:33:29.461Z,15.73
2022-10-12T03:35:57.647Z,17.67
2022-10-12T03:38:25.397Z,22.67
2022-10-12T03:40:53.481Z,20.23
2022-10-12T03:43:21.424Z,19.35
2022-10-12T03:45:49.883Z,15.77
2022-10-12T03:48:17.834Z,15.32
2022-10-12T03:50:50.437Z,14.95
2022-10-12T03:53:19.301Z,15.65
2022-10-12T03:55:47.560Z,14.98
2022-10-12T03:58:15.885Z,16.50
2022-10-12T04:00:44.068Z,16.73
2022-10-12T04:03:11.919Z,15.85
2022-10-12T04:05:40.271Z,17.02
2022-10-12T04:08:08.352Z,16.77
2022-10-12T04:10:36.126Z,15.68
2022-10-12T04:13:04.058Z,15.05
2022-10-12T04:15:32.388Z,14.73
2022-10-12T04:18:00.270Z,14.98
2022-10-12T04:20:28.447Z,15.20
2022-10-12T04:22:56.941Z,15.73
2022-10-12T04:25:29.272Z,16.10
2022-10-12T04:27:58.600Z,16.55
2022-10-12T04:30:26.538Z,16.63
2022-10-12T04:32:54.468Z,15.20
2022-10-12T04:35:22.500Z,15.52
2022-10-12T04:37:50.414Z,15.73
2022-10-12T04:40:18.414Z,16.98
2022-10-12T04:42:46.184Z,16.20
2022-10-12T04:45:14.374Z,18.33
2022-10-12T04:47:42.150Z,18.08
2022-10-12T04:50:10.334Z,16.27
2022-10-12T04:52:38.111Z,15.70
2022-10-12T04:55:06.958Z,16.17
2022-10-12T04:57:34.775Z,15.65
2022-10-12T05:00:03.564Z,15.00
2022-10-12T05:02:31.350Z,14.25
2022-10-12T05:04:59.205Z,15.93
2022-10-12T05:07:27.380Z,15.18
2022-10-12T05:09:55.435Z,14.95
2022-10-12T05:12:23.870Z,14.63
2022-10-12T05:14:51.679Z,15.82
2022-10-12T05:17:19.807Z,18.52
2022-10-12T05:19:47.732Z,20.65
2022-10-12T05:22:15.906Z,23.23
2022-10-12T05:24:43.677Z,44.25
2022-10-12T05:27:11.840Z,73.68
2022-10-12T05:29:39.620Z,90.55
2022-10-12T05:32:07.648Z,73.93
2022-10-12T05:34:35.389Z,56.83
2022-10-12T05:37:03.383Z,47.55
2022-10-12T05:39:31.128Z,33.33
2022-10-12T05:41:59.186Z,25.58
2022-10-12T05:44:26.922Z,26.52
2022-10-12T05:46:57.396Z,32.38
2022-10-12T05:49:25.257Z,45.03
2022-10-12T05:51:53.539Z,46.88
2022-10-12T05:54:21.253Z,45.45
2022-10-12T05:56:49.259Z,49.75
2022-10-12T05:59:17.131Z,42.78
2022-10-12T06:01:45.301Z,41.35
2022-10-12T06:04:13.306Z,42.30
2022-10-12T06:06:41.618Z,39.47
2022-10-12T06:09:09.527Z,34.58
2022-10-12T06:11:37.654Z,32.10
2022-10-12T06:14:05.609Z,30.65
2022-10-12T06:16:34.199Z,27.23
2022-10-12T06:19:01.992Z,24.58
2022-10-12T06:21:34.525Z,22.00
2022-10-12T06:24:03.517Z,22.38
2022-10-12T06:26:31.747Z,23.17
2022-10-12T06:29:01.034Z,32.40
2022-10-12T06:31:29.658Z,36.67
2022-10-12T06:33:59.963Z,32.90
2022-10-12T06:36:28.093Z,37.33
2022-10-12T06:38:56.317Z,52.47
2022-10-12T06:41:24.363Z,55.05
2022-10-12T06:43:52.188Z,61.05
2022-10-12T06:46:20.368Z,38.05
2022-10-12T06:48:48.183Z,30.13
2022-10-12T06:51:19.130Z,25.80
2022-10-12T06:53:46.850Z,32.40
2022-10-12T06:56:17.472Z,32.75
2022-10-12T06:58:45.265Z,27.83
2022-10-12T07:01:13.493Z,27.83
2022-10-12T07:03:41.369Z,24.05
2022-10-12T07:06:15.258Z,23.15
2022-10-12T07:08:43.458Z,17.83
2022-10-12T07:11:13.558Z,18.38
2022-10-12T07:13:41.354Z,20.83
2022-10-12T07:16:09.497Z,15.80
2022-10-12T07:18:37.487Z,17.15
2022-10-12T07:21:05.667Z,16.50
2022-10-12T07:23:35.187Z,14.77
2022-10-12T07:26:07.921Z,14.90
2022-10-12T07:28:36.939Z,16.73
2022-10-12T07:31:07.488Z,14.77
2022-10-12T07:33:36.337Z,17.30
2022-10-12T07:36:21.945Z,26.95
2022-10-12T07:38:50.382Z,46.33
2022-10-12T07:41:18.614Z,24.98
2022-10-12T07:43:46.528Z,13.68
2022-10-12T07:46:14.804Z,12.27
2022-10-12T07:48:47.490Z,11.75
2022-10-12T07:51:18.489Z,11.30
2022-10-12T07:53:46.193Z,10.30
2022-10-12T07:56:15.704Z,9.90
2022-10-12T07:58:55.321Z,11.82
2022-10-12T08:01:28.403Z,10.93
2022-10-12T08:04:01.226Z,10.20
2022-10-12T08:06:32.457Z,10.00
2022-10-12T08:09:01.535Z,9.60
2022-10-12T08:11:30.531Z,9.52
2022-10-12T08:13:58.559Z,9.68
2022-10-12T08:16:26.626Z,10.40
2022-10-12T08:18:54.406Z,12.18
2022-10-12T08:21:22.656Z,12.98
2022-10-12T08:23:50.679Z,15.95
2022-10-12T08:26:18.776Z,24.25
2022-10-12T08:28:46.579Z,18.13
2022-10-12T08:31:17.042Z,17.10
2022-10-12T08:33:45.361Z,15.03
2022-10-12T08:36:14.029Z,13.00
2022-10-12T08:38:43.851Z,15.23
2022-10-12T08:41:33.854Z,21.00
2022-10-12T08:44:49.605Z,82.97
2022-10-12T08:47:32.386Z,21.55
2022-10-12T08:50:02.755Z,16.50
2022-10-12T08:52:55.734Z,16.40
2022-10-12T08:55:35.945Z,25.17
2022-10-12T08:58:04.292Z,17.05
2022-10-12T09:00:35.139Z,21.15
2022-10-12T09:03:03.245Z,25.65
2022-10-12T09:05:46.661Z,16.65
2022-10-12T09:08:32.167Z,11.85
2022-10-12T09:11:31.603Z,14.73
2022-10-12T09:14:11.418Z,15.13
2022-10-12T09:16:44.673Z,13.27
2022-10-12T09:19:20.996Z,20.38
2022-10-12T09:21:50.515Z,23.90
2022-10-12T09:24:39.530Z,44.13
2022-10-12T09:27:19.632Z,12.63
2022-10-12T09:30:01.251Z,25.77
2022-10-12T09:32:32.192Z,45.97
2022-10-12T09:35:00.823Z,49.20
2022-10-12T09:37:31.838Z,49.30
2022-10-12T09:40:02.867Z,106.07
2022-10-12T09:42:31.737Z,67.18
2022-10-12T09:45:02.273Z,30.13
2022-10-12T09:47:32.464Z,23.85
2022-10-12T09:50:02.815Z,28.15
2022-10-12T09:52:35.415Z,17.70
2022-10-12T09:55:08.244Z,12.23
2022-10-12T09:57:39.696Z,16.20
2022-10-12T10:00:25.688Z,8.55
2022-10-12T10:02:54.792Z,7.97
2022-10-12T10:05:37.419Z,11.65
2022-10-12T10:08:21.872Z,19.83
2022-10-12T10:10:59.042Z,8.13
2022-10-12T10:13:37.032Z,16.65
2022-10-12T10:16:11.459Z,9.85
2022-10-12T10:18:50.208Z,14.73
2022-10-12T10:21:29.328Z,25.83
2022-10-12T10:23:58.322Z,78.35
2022-10-12T10:26:27.928Z,72.32
2022-10-12T10:29:17.698Z,27.77
2022-10-12T10:31:48.245Z,46.17
2022-10-12T10:34:19.001Z,50.30
2022-10-12T10:36:54.171Z,32.97
2022-10-12T10:39:29.200Z,9.13
2022-10-12T10:42:12.365Z,6.28
2022-10-12T10:47:31.445Z,3.47
2022-10-12T10:50:01.661Z,3.42
2022-10-12T10:52:34.535Z,4.18
2022-10-12T10:55:11.659Z,3.80
2022-10-12T10:57:44.749Z,4.75
2022-10-12T11:00:37.947Z,3.90
2022-10-12T11:03:34.451Z,3.85
2022-10-12T11:06:20.294Z,3.50
2022-10-12T11:08:54.423Z,3.55
2022-10-12T11:11:27.163Z,3.22
2022-10-12T11:14:04.317Z,3.92
2022-10-12T11:16:40.190Z,4.03
2022-10-12T11:19:42.503Z,5.55
2022-10-12T11:22:20.377Z,3.63
2022-10-12T11:25:01.660Z,3.60
2022-10-12T11:30:14.635Z,3.20
2022-10-12T11:32:47.554Z,3.28
2022-10-12T11:35:20.734Z,3.97
2022-10-12T11:37:54.274Z,3.70
2022-10-12T11:41:00.272Z,3.88
2022-10-12T11:43:25.774Z,3.58
2022-10-12T11:45:57.445Z,3.15
2022-10-12T11:48:41.454Z,3.00
2022-10-12T11:51:10.958Z,2.72
2022-10-12T11:53:46.844Z,3.17
2022-10-12T11:56:25.982Z,3.05
2022-10-12T11:59:09.680Z,3.00
2022-10-12T12:01:49.830Z,2.97
2022-10-12T12:04:41.160Z,2.88
2022-10-12T12:07:39.288Z,3.17
2022-10-12T12:10:26.094Z,3.42
2022-10-12T12:13:23.089Z,4.45
2022-10-12T12:15:53.644Z,3.38
2022-10-12T12:21:00.872Z,2.45
2022-10-12T12:23:40.792Z,2.60
2022-10-12T12:26:16.169Z,3.30
2022-10-12T12:28:49.700Z,2.95
2022-10-12T12:31:23.285Z,5.80
2022-10-12T12:34:21.326Z,31.17
2022-10-12T12:36:51.801Z,8.38
2022-10-12T12:39:26.622Z,5.50
2022-10-12T12:42:05.382Z,4.10
2022-10-12T12:45:20.407Z,4.15
2022-10-12T12:47:48.698Z,3.92
2022-10-12T12:50:35.689Z,4.63
2022-10-12T12:53:21.284Z,6.65
2022-10-12T12:55:58.283Z,10.48
2022-10-12T12:58:49.768Z,8.82
2022-10-12T13:01:34.921Z,7.90
2022-10-12T13:04:27.983Z,7.47
2022-10-12T13:07:01.999Z,5.55
2022-10-12T13:09:53.210Z,5.95
2022-10-12T13:12:55.637Z,5.43
2022-10-12T13:15:36.343Z,4.60
2022-10-12T13:20:34.769Z,4.30
2022-10-12T13:23:12.008Z,3.45
2022-10-12T13:25:47.376Z,2.88
2022-10-12T13:28:35.130Z,3.50
2022-10-12T13:31:14.278Z,5.47
2022-10-12T13:33:50.766Z,4.88
2022-10-12T13:36:26.323Z,4.40
2022-10-12T13:39:10.475Z,5.82
2022-10-12T13:41:38.665Z,7.07
2022-10-12T13:44:07.531Z,6.07
2022-10-12T13:46:43.656Z,5.95
2022-10-12T13:49:30.114Z,8.38
2022-10-12T13:52:00.879Z,7.25
2022-10-12T13:54:34.842Z,11.05
2022-10-12T13:57:19.466Z,9.98
2022-10-12T13:59:50.301Z,8.52
2022-10-12T14:02:30.156Z,7.38
2022-10-12T14:05:00.481Z,7.78
2022-10-12T14:07:41.964Z,12.48
2022-10-12T14:10:16.820Z,24.35
2022-10-12T14:12:51.085Z,52.55
2022-10-12T14:15:20.253Z,58.13
2022-10-12T14:17:53.087Z,68.18
2022-10-12T14:20:31.168Z,62.97
2022-10-12T14:23:01.515Z,23.05
2022-10-12T14:25:33.331Z,26.10
2022-10-12T14:28:04.681Z,25.10
2022-10-12T14:30:36.883Z,23.23
2022-10-12T14:33:16.846Z,20.23
2022-10-12T14:35:49.506Z,19.50
2022-10-12T14:38:42.113Z,18.15
2022-10-12T14:41:28.568Z,31.15
2022-10-12T14:44:16.494Z,28.45
2022-10-12T14:46:52.938Z,18.55
2022-10-12T14:49:35.622Z,15.05
2022-10-12T14:52:03.617Z,13.55
2022-10-12T14:54:31.900Z,12.02
2022-10-12T14:57:13.840Z,15.35
2022-10-12T14:59:42.366Z,16.08
2022-10-12T15:02:22.479Z,14.43
2022-10-12T15:04:51.444Z,14.32
2022-10-12T15:07:25.213Z,13.00
2022-10-12T15:09:53.753Z,12.27
2022-10-12T15:12:23.307Z,11.80
2022-10-12T15:14:54.172Z,13.35
2022-10-12T15:17:21.911Z,17.13
2022-10-12T15:19:51.658Z,27.27
2022-10-12T15:22:25.426Z,31.33
2022-10-12T15:24:54.806Z,28.38
2022-10-12T15:27:22.605Z,25.30
2022-10-12T15:29:50.834Z,28.98
2022-10-12T15:32:19.491Z,34.00
2022-10-12T15:34:47.689Z,38.40
2022-10-12T15:37:15.579Z,37.92
2022-10-12T15:39:43.573Z,35.38
2022-10-12T15:42:15.490Z,36.80
2022-10-12T15:44:43.254Z,33.92
2022-10-12T15:47:11.777Z,30.50
2022-10-12T15:49:39.770Z,25.33
2022-10-12T15:52:11.671Z,21.40
2022-10-12T15:54:39.526Z,18.45
2022-10-12T15:57:08.338Z,20.42
2022-10-12T15:59:36.372Z,20.27
2022-10-12T16:02:04.489Z,29.55
2022-10-12T16:04:32.227Z,30.95
2022-10-12T16:07:02.248Z,34.25
2022-10-12T16:09:29.951Z,59.15
2022-10-12T16:11:58.019Z,46.97
2022-10-12T16:14:25.729Z,58.70
2022-10-12T16:16:53.803Z,69.72
2022-10-12T16:19:21.677Z,55.28
2022-10-12T16:21:49.417Z,56.72
2022-10-12T16:24:18.140Z,35.83
2022-10-12T16:26:47.544Z,37.80
2022-10-12T16:29:16.018Z,53.88
2022-10-12T16:31:43.713Z,49.47
2022-10-12T16:34:11.752Z,43.67
2022-10-12T16:36:39.587Z,33.63
2022-10-12T16:39:07.634Z,32.25
2022-10-12T16:41:35.376Z,27.25
2022-10-12T16:44:04.852Z,36.63
2022-10-12T16:46:32.599Z,41.92
2022-10-12T16:49:00.661Z,41.75
2022-10-12T16:51:28.381Z,40.83
2022-10-12T16:53:57.271Z,35.95
2022-10-12T16:56:24.962Z,35.15
2022-10-12T16:58:53.072Z,47.47
2022-10-12T17:01:20.838Z,63.97
2022-10-12T17:03:48.911Z,64.50
2022-10-12T17:06:16.739Z,81.93
2022-10-12T17:08:44.796Z,84.15
2022-10-12T17:11:16.592Z,71.78
2022-10-12T17:13:48.960Z,62.00
2022-10-12T17:16:37.309Z,53.95
2022-10-12T17:19:05.737Z,48.95
2022-10-12T17:21:33.864Z,42.42
2022-10-12T17:24:02.942Z,41.17
2022-10-12T17:26:31.033Z,52.63
2022-10-12T17:28:59.191Z,55.22
2022-10-12T17:31:27.015Z,64.22
2022-10-12T17:33:55.605Z,68.75
2022-10-12T17:36:28.095Z,81.25
2022-10-12T17:39:00.065Z,89.53
2022-10-12T17:41:29.065Z,89.07
2022-10-12T17:43:58.251Z,57.50
2022-10-12T17:46:26.450Z,56.65
2022-10-12T17:48:56.302Z,54.55
2022-10-12T17:51:24.517Z,47.38
2022-10-12T17:53:52.768Z,58.72
2022-10-12T17:56:21.326Z,53.28
2022-10-12T17:58:57.588Z,54.47
2022-10-12T18:01:30.913Z,41.08
2022-10-12T18:04:03.432Z,55.35
2022-10-12T18:06:33.212Z,53.60
2022-10-12T18:09:04.050Z,54.78
2022-10-12T18:11:32.858Z,66.28
2022-10-12T18:14:03.681Z,78.35
2022-10-12T18:16:33.476Z,73.35
2022-10-12T18:19:07.153Z,74.60
2022-10-12T18:21:35.340Z,81.07
2022-10-12T18:24:06.938Z,86.40
2022-10-12T18:26:35.253Z,98.72
2022-10-12T18:29:05.358Z,99.30
2022-10-12T18:31:33.566Z,98.25
2022-10-12T18:34:03.295Z,89.80
2022-10-12T18:36:31.342Z,92.18
2022-10-12T18:39:02.001Z,91.47
2022-10-12T18:43:59.836Z,85.00
2022-10-12T18:46:29.648Z,102.13
2022-10-12T18:48:58.864Z,113.97
2022-10-12T18:51:31.583Z,119.13
2022-10-12T18:54:01.204Z,122.95
2022-10-12T18:56:30.458Z,121.67
2022-10-12T18:59:00.157Z,119.47
2022-10-12T19:01:30.460Z,113.65
2022-10-12T19:04:01.866Z,105.03
2022-10-12T19:06:32.780Z,102.32
2022-10-12T19:09:02.229Z,106.75
2022-10-12T19:11:34.782Z,115.45
2022-10-12T19:14:07.722Z,116.88
2022-10-12T19:16:36.559Z,114.43
2022-10-12T19:19:13.980Z,99.07
2022-10-12T19:21:45.394Z,92.80
2022-10-12T19:24:17.614Z,91.40
2022-10-12T19:26:45.798Z,91.10
2022-10-12T19:29:14.215Z,58.97
2022-10-12T19:31:47.286Z,56.10
2022-10-12T19:34:18.346Z,47.95
2022-10-12T19:36:46.789Z,36.33
2022-10-12T19:39:20.532Z,28.15
2022-10-12T19:41:49.846Z,29.50
2022-10-12T19:44:19.345Z,31.52
2022-10-12T19:46:49.137Z,30.90
2022-10-12T19:49:20.881Z,32.28
2022-10-12T19:51:49.059Z,32.75
2022-10-12T19:54:16.859Z,47.10
2022-10-12T19:56:46.666Z,61.30
2022-10-12T19:59:14.502Z,78.15
2022-10-12T20:01:47.994Z,110.35
2022-10-12T20:04:16.424Z,133.00
2022-10-12T20:06:44.637Z,89.80
2022-10-12T20:09:12.600Z,68.53
2022-10-12T20:11:40.982Z,54.50
2022-10-12T20:14:09.216Z,52.50
2022-10-12T20:16:37.739Z,87.50
2022-10-12T20:19:08.313Z,98.47
2022-10-12T20:21:36.942Z,88.28
2022-10-12T20:24:05.219Z,70.78
2022-10-12T20:26:33.388Z,50.65
2022-10-12T20:29:01.684Z,53.42
2022-10-12T20:31:29.961Z,51.25
2022-10-12T20:33:58.511Z,45.50
2022-10-12T20:36:29.230Z,42.42
2022-10-12T20:41:26.014Z,47.65
2022-10-12T20:43:59.146Z,50.78
2022-10-12T20:46:30.701Z,45.85
2022-10-12T20:49:01.135Z,47.35
2022-10-12T20:51:32.274Z,50.60
2022-10-12T20:54:01.672Z,143.40
2022-10-12T20:56:32.354Z,70.38
2022-10-12T20:59:01.462Z,60.00
2022-10-12T21:01:29.828Z,62.05
2022-10-12T21:03:57.941Z,48.47
2022-10-12T21:06:26.167Z,47.45
2022-10-12T21:08:56.544Z,49.33
2022-10-12T21:11:25.551Z,47.70
2022-10-12T21:13:54.768Z,44.72
2022-10-12T21:16:23.385Z,33.53
2022-10-12T21:18:54.922Z,33.05
2022-10-12T21:21:24.398Z,31.83
2022-10-12T21:23:57.817Z,31.08
2022-10-12T21:26:30.771Z,32.90
2022-10-12T21:28:59.993Z,38.65
2022-10-12T21:31:32.346Z,42.40
2022-10-12T21:34:02.763Z,49.08
2022-10-12T21:36:32.078Z,50.33
2022-10-12T21:38:59.971Z,60.08
2022-10-12T21:41:29.991Z,68.28
2022-10-12T21:43:58.019Z,79.15
2022-10-12T21:46:31.503Z,77.20
2022-10-12T21:49:01.510Z,72.93
2022-10-12T21:51:31.647Z,70.55
2022-10-12T21:53:59.810Z,46.10
2022-10-12T21:56:30.345Z,54.03
2022-10-12T21:59:00.279Z,59.40
2022-10-12T22:01:35.453Z,64.15
2022-10-12T22:04:06.432Z,67.65
2022-10-12T22:06:35.126Z,64.50
2022-10-12T22:09:06.952Z,59.58
2022-10-12T22:11:36.896Z,56.90
2022-10-12T22:14:12.293Z,58.95
2022-10-12T22:16:41.213Z,62.17
2022-10-12T22:19:11.157Z,53.10
2022-10-12T22:21:38.945Z,56.03
2022-10-12T22:24:07.307Z,61.35
2022-10-12T22:26:35.542Z,66.63
2022-10-12T22:29:06.402Z,64.13
2022-10-12T22:31:35.071Z,62.60
2022-10-12T22:34:03.205Z,60.88
2022-10-12T22:36:34.174Z,66.50
2022-10-12T22:39:04.569Z,88.95
2022-10-12T22:41:32.431Z,86.85
2022-10-12T22:44:00.135Z,71.72
2022-10-12T22:46:28.263Z,68.18
2022-10-12T22:48:56.023Z,62.35
2022-10-12T22:51:35.875Z,62.65
2022-10-12T22:54:04.350Z,48.15
2022-10-12T22:56:32.775Z,54.42
2022-10-12T22:59:03.415Z,50.47
2022-10-12T23:01:31.458Z,49.67
2022-10-12T23:03:59.285Z,49.13
2022-10-12T23:06:27.032Z,50.38
2022-10-12T23:08:55.615Z,52.65
2022-10-12T23:11:26.428Z,60.78
2022-10-12T23:13:55.009Z,68.15
2022-10-12T23:16:29.577Z,60.80
2022-10-12T23:18:59.911Z,54.85
2022-10-12T23:21:29.861Z,53.58
2022-10-12T23:23:59.607Z,55.22
2022-10-12T23:26:28.739Z,56.50
2022-10-12T23:28:57.051Z,58.53
2022-10-12T23:31:27.584Z,57.80
2022-10-12T23:36:35.167Z,55.65
2022-10-12T23:39:04.830Z,55.78
2022-10-12T23:41:32.997Z,55.42
2022-10-12T23:44:01.321Z,57.65
2022-10-12T23:46:29.217Z,54.47
2022-10-12T23:48:58.574Z,57.95
2022-10-12T23:51:26.615Z,57.45
2022-10-12T23:53:54.316Z,52.70
2022-10-12T23:56:22.056Z,54.40
2022-10-12T23:58:50.315Z,50.78
